createdAt,value
2018-11-05T00:00:40.542Z,9.70
2018-11-05T00:03:08.575Z,9.77
2018-11-05T00:05:36.581Z,9.93
2018-11-05T00:08:04.572Z,9.30
2018-11-05T00:10:32.491Z,9.23
2018-11-05T00:13:00.383Z,9.53
2018-11-05T00:15:28.397Z,9.23
2018-11-05T00:17:56.294Z,9.73
2018-11-05T00:20:24.207Z,9.87
2018-11-05T00:22:52.082Z,9.70
2018-11-05T00:25:19.993Z,9.57
2018-11-05T00:27:47.881Z,11.30
2018-11-05T00:30:15.771Z,9.97
2018-11-05T00:32:44.060Z,10.10
2018-11-05T00:35:12.187Z,10.37
2018-11-05T00:37:40.123Z,10.73
2018-11-05T00:40:09.002Z,10.00
2018-11-05T00:42:36.839Z,11.30
2018-11-05T00:45:05.242Z,9.97
2018-11-05T00:47:33.124Z,10.13
2018-11-05T00:50:01.007Z,10.33
2018-11-05T00:52:28.884Z,10.27
2018-11-05T00:54:56.762Z,9.73
2018-11-05T00:57:24.655Z,10.60
2018-11-05T00:59:52.555Z,10.23
2018-11-05T01:02:20.432Z,9.73
2018-11-05T01:04:48.307Z,9.87
2018-11-05T01:07:16.183Z,9.73
2018-11-05T01:09:44.074Z,9.77
2018-11-05T01:12:11.971Z,10.63
2018-11-05T01:14:39.832Z,10.13
2018-11-05T01:17:07.754Z,10.23
2018-11-05T01:19:35.638Z,10.40
2018-11-05T01:22:03.562Z,10.67
2018-11-05T01:24:31.475Z,10.20
2018-11-05T01:26:59.371Z,10.03
2018-11-05T01:29:27.380Z,10.30
2018-11-05T01:31:55.267Z,9.67
2018-11-05T01:34:23.147Z,10.30
2018-11-05T01:36:51.050Z,9.97
2018-11-05T01:39:18.931Z,9.30
2018-11-05T01:41:46.840Z,9.87
2018-11-05T01:44:14.737Z,9.70
2018-11-05T01:46:42.602Z,9.67
2018-11-05T01:49:10.519Z,9.23
2018-11-05T01:51:44.052Z,10.10
2018-11-05T01:54:12.007Z,10.07
2018-11-05T01:56:39.898Z,9.37
2018-11-05T01:59:07.875Z,10.30
2018-11-05T02:01:35.743Z,9.27
2018-11-05T02:04:03.619Z,9.33
2018-11-05T02:06:31.583Z,10.03
2018-11-05T02:08:59.465Z,9.60
2018-11-05T02:11:27.374Z,9.13
2018-11-05T02:13:55.386Z,9.00
2018-11-05T02:16:23.267Z,9.53
2018-11-05T02:18:51.135Z,8.93
2018-11-05T02:21:19.073Z,9.30
2018-11-05T02:23:46.951Z,8.47
2018-11-05T02:26:14.826Z,8.57
2018-11-05T02:28:42.699Z,9.20
2018-11-05T02:31:10.569Z,7.97
2018-11-05T02:33:38.509Z,9.30
2018-11-05T02:36:06.454Z,8.37
2018-11-05T02:38:34.331Z,8.57
2018-11-05T02:41:02.212Z,8.83
2018-11-05T02:43:30.157Z,8.27
2018-11-05T02:45:58.036Z,8.17
2018-11-05T02:48:25.902Z,8.77
2018-11-05T02:50:53.780Z,8.47
2018-11-05T02:53:21.669Z,8.20
2018-11-05T02:55:49.538Z,9.10
2018-11-05T02:58:17.455Z,8.83
2018-11-05T03:00:45.363Z,7.60
2018-11-05T03:03:13.365Z,9.30
2018-11-05T03:05:41.219Z,8.80
2018-11-05T03:08:09.167Z,8.60
2018-11-05T03:10:37.044Z,8.53
2018-11-05T03:13:05.218Z,9.50
2018-11-05T03:15:33.145Z,8.57
2018-11-05T03:18:01.011Z,8.23
2018-11-05T03:20:29.011Z,8.83
2018-11-05T03:22:58.442Z,7.73
2018-11-05T03:25:26.338Z,9.00
2018-11-05T03:27:54.253Z,8.73
2018-11-05T03:30:22.199Z,9.03
2018-11-05T03:32:50.183Z,9.53
2018-11-05T03:35:18.046Z,8.73
2018-11-05T03:37:46.429Z,9.07
2018-11-05T03:40:14.630Z,8.97
2018-11-05T03:42:43.826Z,8.83
2018-11-05T03:45:13.013Z,9.70
2018-11-05T03:47:40.879Z,9.17
2018-11-05T03:50:13.339Z,9.57
2018-11-05T03:52:41.546Z,8.63
2018-11-05T03:55:09.568Z,8.77
2018-11-05T03:57:37.568Z,8.20
2018-11-05T04:00:05.686Z,8.37
2018-11-05T04:02:33.563Z,8.93
2018-11-05T04:05:01.475Z,9.03
2018-11-05T04:07:29.352Z,9.20
2018-11-05T04:09:57.285Z,9.17
2018-11-05T04:12:25.239Z,8.60
2018-11-05T04:14:53.127Z,9.73
2018-11-05T04:17:22.049Z,9.07
2018-11-05T04:19:49.970Z,9.37
2018-11-05T04:22:17.870Z,9.30
2018-11-05T04:24:46.182Z,8.90
2018-11-05T04:27:14.098Z,8.53
2018-11-05T04:29:41.974Z,10.73
2018-11-05T04:32:09.907Z,12.90
2018-11-05T04:34:37.831Z,10.97
2018-11-05T04:37:05.718Z,9.30
2018-11-05T04:39:33.656Z,9.17
2018-11-05T04:42:01.531Z,9.80
2018-11-05T04:44:29.471Z,8.77
2018-11-05T04:46:57.369Z,9.23
2018-11-05T04:49:25.304Z,13.93
2018-11-05T04:51:54.463Z,9.83
2018-11-05T04:54:22.336Z,9.67
2018-11-05T04:56:50.231Z,10.37
2018-11-05T04:59:18.187Z,9.30
2018-11-05T05:01:46.060Z,10.60
2018-11-05T05:04:14.021Z,10.77
2018-11-05T05:06:41.903Z,9.83
2018-11-05T05:09:11.407Z,9.50
2018-11-05T05:11:39.527Z,9.33
2018-11-05T05:14:10.630Z,10.07
2018-11-05T05:16:38.871Z,9.90
2018-11-05T05:19:06.863Z,9.80
2018-11-05T05:21:34.830Z,9.37
2018-11-05T05:24:02.952Z,9.87
2018-11-05T05:26:30.872Z,9.60
2018-11-05T05:28:58.802Z,10.23
2018-11-05T05:31:26.760Z,9.70
2018-11-05T05:33:54.659Z,9.37
2018-11-05T05:36:22.555Z,10.73
2018-11-05T05:38:50.536Z,10.00
2018-11-05T05:41:18.510Z,10.70
2018-11-05T05:43:46.408Z,10.10
2018-11-05T05:46:14.342Z,9.50
2018-11-05T05:48:42.429Z,10.10
2018-11-05T05:51:10.302Z,10.83
2018-11-05T05:53:38.263Z,11.00
2018-11-05T05:56:09.208Z,10.70
2018-11-05T05:58:37.099Z,10.77
2018-11-05T06:01:05.045Z,10.67
2018-11-05T06:03:33.010Z,10.53
2018-11-05T06:06:00.920Z,10.57
2018-11-05T06:08:28.879Z,10.53
2018-11-05T06:10:56.783Z,9.93
2018-11-05T06:13:24.787Z,10.57
2018-11-05T06:15:52.736Z,10.97
2018-11-05T06:18:20.824Z,11.43
2018-11-05T06:20:48.768Z,11.70
2018-11-05T06:23:16.798Z,11.40
2018-11-05T06:25:44.738Z,10.37
2018-11-05T06:28:12.779Z,11.67
2018-11-05T06:30:40.859Z,10.97
2018-11-05T06:33:08.742Z,11.13
2018-11-05T06:35:36.679Z,11.60
2018-11-05T06:38:04.807Z,11.37
2018-11-05T06:40:32.760Z,10.97
2018-11-05T06:43:00.703Z,11.07
2018-11-05T06:45:30.122Z,11.00
2018-11-05T06:47:58.191Z,11.77
2018-11-05T06:50:26.476Z,12.13
2018-11-05T06:52:54.477Z,11.63
2018-11-05T06:55:22.403Z,11.50
2018-11-05T06:57:50.479Z,12.27
2018-11-05T07:00:19.556Z,11.87
2018-11-05T07:02:47.668Z,11.63
2018-11-05T07:05:15.826Z,11.93
2018-11-05T07:07:43.759Z,12.23
2018-11-05T07:10:12.980Z,11.87
2018-11-05T07:12:41.654Z,13.27
2018-11-05T07:15:11.367Z,12.70
2018-11-05T07:17:39.414Z,12.80
2018-11-05T07:20:08.179Z,13.67
2018-11-05T07:22:36.089Z,13.67
2018-11-05T07:25:04.806Z,12.37
2018-11-05T07:27:32.742Z,12.47
2018-11-05T07:30:00.641Z,11.53
2018-11-05T07:32:28.635Z,12.90
2018-11-05T07:34:56.503Z,11.90
2018-11-05T07:37:24.381Z,12.43
2018-11-05T07:39:52.275Z,12.80
2018-11-05T07:42:20.147Z,13.33
2018-11-05T07:44:48.069Z,12.30
2018-11-05T07:47:15.980Z,13.70
2018-11-05T07:49:43.976Z,12.63
2018-11-05T07:52:11.951Z,14.37
2018-11-05T07:54:39.908Z,13.30
2018-11-05T07:57:07.883Z,13.73
2018-11-05T07:59:35.947Z,13.47
2018-11-05T08:02:05.032Z,12.93
2018-11-05T08:04:33.015Z,12.93
2018-11-05T08:07:00.875Z,14.93
2018-11-05T08:09:28.854Z,13.90
2018-11-05T08:11:57.058Z,13.57
2018-11-05T08:14:25.011Z,13.67
2018-11-05T08:16:53.411Z,12.93
2018-11-05T08:19:21.346Z,13.17
2018-11-05T08:21:49.216Z,16.47
2018-11-05T08:24:17.187Z,14.20
2018-11-05T08:26:45.147Z,15.57
2018-11-05T08:34:08.869Z,14.10
2018-11-05T08:36:36.739Z,13.57
2018-11-05T08:39:06.728Z,14.47
2018-11-05T08:41:34.611Z,13.57
2018-11-05T08:44:02.583Z,13.97
2018-11-05T08:46:32.612Z,13.67
2018-11-05T08:49:00.574Z,14.90
2018-11-05T08:51:29.727Z,15.33
2018-11-05T08:53:57.436Z,14.07
2018-11-05T08:56:25.395Z,13.00
2018-11-05T08:58:58.344Z,14.60
2018-11-05T09:01:32.775Z,14.37
2018-11-05T09:04:02.202Z,14.27
2018-11-05T09:06:33.235Z,13.00
2018-11-05T09:09:01.192Z,13.67
2018-11-05T09:11:29.395Z,14.03
2018-11-05T09:13:58.055Z,14.37
2018-11-05T09:16:26.026Z,14.40
2018-11-05T09:18:54.016Z,13.80
2018-11-05T09:21:24.027Z,12.50
2018-11-05T09:23:54.039Z,13.30
2018-11-05T09:26:22.004Z,14.27
2018-11-05T09:28:49.971Z,12.73
2018-11-05T09:31:17.968Z,13.93
2018-11-05T09:33:45.922Z,11.90
2018-11-05T09:36:13.983Z,13.27
2018-11-05T09:38:41.870Z,13.67
2018-11-05T09:41:09.803Z,15.87
2018-11-05T09:43:37.698Z,14.73
2018-11-05T09:46:09.763Z,14.70
2018-11-05T09:48:38.056Z,14.47
2018-11-05T09:51:05.995Z,14.57
2018-11-05T09:53:33.875Z,16.63
2018-11-05T09:56:01.786Z,14.80
2018-11-05T09:58:29.782Z,15.00
2018-11-05T10:00:57.772Z,14.50
2018-11-05T10:03:25.933Z,14.63
2018-11-05T10:05:55.256Z,14.57
2018-11-05T10:08:23.246Z,14.80
2018-11-05T10:10:51.234Z,13.93
2018-11-05T10:13:19.075Z,14.70
2018-11-05T10:15:47.027Z,13.73
2018-11-05T10:18:14.907Z,15.23
2018-11-05T10:20:42.869Z,14.80
2018-11-05T10:23:10.838Z,15.03
2018-11-05T10:25:38.765Z,15.13
2018-11-05T10:28:08.123Z,15.60
2018-11-05T10:30:36.084Z,15.40
2018-11-05T10:33:04.308Z,15.63
2018-11-05T10:35:37.679Z,16.03
2018-11-05T10:38:05.611Z,15.77
2018-11-05T10:43:19.604Z,15.83
2018-11-05T10:45:47.521Z,15.53
2018-11-05T10:48:15.426Z,16.13
2018-11-05T10:50:43.389Z,17.20
2018-11-05T10:53:11.300Z,16.00
2018-11-05T10:55:39.217Z,15.93
2018-11-05T10:58:07.228Z,15.13
2018-11-05T11:00:40.583Z,14.60
2018-11-05T11:03:13.892Z,15.90
2018-11-05T11:05:41.839Z,14.67
2018-11-05T11:08:09.785Z,15.93
2018-11-05T11:10:37.697Z,16.37
2018-11-05T11:13:05.602Z,16.30
2018-11-05T11:15:33.499Z,14.97
2018-11-05T11:18:01.396Z,16.37
2018-11-05T11:20:29.350Z,15.10
2018-11-05T11:22:57.247Z,16.00
2018-11-05T11:25:25.141Z,16.00
2018-11-05T11:27:53.149Z,16.37
2018-11-05T11:30:20.965Z,16.07
2018-11-05T11:32:49.562Z,14.87
2018-11-05T11:35:17.456Z,16.37
2018-11-05T11:37:45.392Z,15.90
2018-11-05T11:40:14.956Z,16.17
2018-11-05T11:42:43.843Z,14.97
2018-11-05T11:45:12.222Z,16.67
2018-11-05T11:47:40.146Z,16.47
2018-11-05T11:50:09.026Z,16.67
2018-11-05T11:52:37.004Z,15.20
2018-11-05T11:55:05.604Z,15.93
2018-11-05T11:57:33.555Z,16.13
2018-11-05T12:00:01.470Z,16.13
2018-11-05T12:02:29.379Z,15.47
2018-11-05T12:04:57.328Z,15.60
2018-11-05T12:07:25.223Z,16.77
2018-11-05T12:09:54.271Z,15.10
2018-11-05T12:12:22.291Z,16.03
2018-11-05T12:14:50.448Z,16.00
2018-11-05T12:17:18.149Z,15.53
2018-11-05T12:19:46.084Z,16.90
2018-11-05T12:22:14.053Z,16.17
2018-11-05T12:24:41.978Z,15.50
2018-11-05T12:27:09.870Z,15.77
2018-11-05T12:29:37.793Z,15.57
2018-11-05T12:32:05.759Z,16.40
2018-11-05T12:34:33.715Z,17.20
2018-11-05T12:37:01.636Z,16.37
2018-11-05T12:39:29.555Z,16.53
2018-11-05T12:41:57.509Z,16.50
2018-11-05T12:44:25.445Z,15.60
2018-11-05T12:46:53.399Z,15.43
2018-11-05T12:49:21.428Z,15.90
2018-11-05T12:51:53.452Z,14.97
2018-11-05T12:54:21.417Z,15.23
2018-11-05T12:56:49.288Z,15.57
2018-11-05T12:59:17.190Z,15.77
2018-11-05T13:01:45.095Z,16.43
2018-11-05T13:04:13.111Z,15.40
2018-11-05T13:06:40.938Z,15.60
2018-11-05T13:09:09.330Z,16.30
2018-11-05T13:11:37.263Z,15.93
2018-11-05T13:14:05.224Z,15.37
2018-11-05T13:16:33.300Z,15.60
2018-11-05T13:19:01.204Z,15.87
2018-11-05T13:21:29.119Z,15.70
2018-11-05T13:23:57.096Z,15.53
2018-11-05T13:26:25.013Z,16.73
2018-11-05T13:28:52.961Z,16.60
2018-11-05T13:31:20.884Z,16.33
2018-11-05T13:33:48.805Z,15.20
2018-11-05T13:36:16.700Z,15.07
2018-11-05T13:38:44.676Z,16.07
2018-11-05T13:41:12.557Z,16.53
2018-11-05T13:43:40.467Z,16.43
2018-11-05T13:46:08.723Z,16.77
2018-11-05T13:48:36.880Z,16.30
2018-11-05T13:51:04.651Z,17.17
2018-11-05T13:53:33.785Z,16.17
2018-11-05T13:56:01.737Z,15.67
2018-11-05T13:58:29.637Z,15.23
2018-11-05T14:00:57.552Z,15.53
2018-11-05T14:03:25.467Z,15.20
2018-11-05T14:05:53.504Z,15.40
2018-11-05T14:08:21.362Z,14.93
2018-11-05T14:10:49.261Z,15.37
2018-11-05T14:13:17.201Z,15.43
2018-11-05T14:15:45.111Z,15.77
2018-11-05T14:18:13.085Z,15.90
2018-11-05T14:20:41.019Z,14.37
2018-11-05T14:23:10.647Z,15.67
2018-11-05T14:25:38.818Z,14.93
2018-11-05T14:28:07.062Z,16.23
2018-11-05T14:30:34.555Z,15.83
2018-11-05T14:33:02.516Z,14.40
2018-11-05T14:35:30.422Z,17.97
2018-11-05T14:37:58.392Z,14.70
2018-11-05T14:40:26.334Z,14.67
2018-11-05T14:42:54.354Z,15.13
2018-11-05T14:45:22.232Z,15.43
2018-11-05T14:47:50.415Z,14.43
2018-11-05T14:50:19.646Z,15.47
2018-11-05T14:52:47.572Z,17.70
2018-11-05T14:55:16.420Z,15.27
2018-11-05T14:57:45.164Z,15.47
2018-11-05T15:00:15.688Z,16.73
2018-11-05T15:02:44.227Z,15.20
2018-11-05T15:05:12.920Z,15.30
2018-11-05T15:07:41.467Z,15.10
2018-11-05T15:10:11.464Z,16.13
2018-11-05T15:12:39.355Z,14.90
2018-11-05T15:15:07.522Z,15.67
2018-11-05T15:17:35.424Z,15.03
2018-11-05T15:20:03.885Z,14.77
2018-11-05T15:22:31.491Z,15.83
2018-11-05T15:24:59.400Z,15.30
2018-11-05T15:27:27.351Z,15.40
2018-11-05T15:29:55.235Z,15.40
2018-11-05T15:32:23.167Z,15.17
2018-11-05T15:34:51.092Z,15.87
2018-11-05T15:37:19.044Z,15.03
2018-11-05T15:39:46.996Z,16.07
2018-11-05T15:42:14.899Z,16.80
2018-11-05T15:44:42.840Z,15.73
2018-11-05T15:47:10.780Z,14.87
2018-11-05T15:49:38.759Z,16.53
2018-11-05T15:52:06.895Z,14.97
2018-11-05T15:54:38.842Z,15.53
2018-11-05T15:57:07.702Z,16.63
2018-11-05T15:59:35.703Z,14.47
2018-11-05T16:02:08.975Z,15.37
2018-11-05T16:04:36.884Z,14.43
2018-11-05T16:07:05.115Z,14.10
2018-11-05T16:09:33.138Z,14.90
2018-11-05T16:12:01.326Z,16.43
2018-11-05T16:14:29.247Z,15.50
2018-11-05T16:19:31.611Z,17.23
2018-11-05T16:21:59.680Z,15.47
2018-11-05T16:24:27.843Z,16.67
2018-11-05T16:26:56.135Z,18.40
2018-11-05T16:29:24.052Z,18.97
2018-11-05T16:31:51.992Z,16.67
2018-11-05T16:34:19.917Z,16.50
2018-11-05T16:36:47.855Z,16.83
2018-11-05T16:39:15.846Z,16.17
2018-11-05T16:41:43.768Z,17.03
2018-11-05T16:44:11.780Z,17.53
2018-11-05T16:46:40.190Z,17.80
2018-11-05T16:49:08.109Z,17.57
2018-11-05T16:51:37.105Z,17.30
2018-11-05T16:54:06.780Z,17.20
2018-11-05T16:56:35.306Z,17.77
2018-11-05T16:59:03.516Z,17.60
2018-11-05T17:01:31.781Z,17.47
2018-11-05T17:03:59.306Z,15.93
2018-11-05T17:06:27.240Z,16.73
2018-11-05T17:08:55.172Z,16.53
2018-11-05T17:11:23.107Z,15.77
2018-11-05T17:13:51.019Z,16.30
2018-11-05T17:16:18.904Z,16.60
2018-11-05T17:18:46.803Z,15.97
2018-11-05T17:21:14.690Z,14.60
2018-11-05T17:23:42.663Z,15.10
2018-11-05T17:26:11.642Z,13.90
2018-11-05T17:28:39.557Z,16.17
2018-11-05T17:31:07.794Z,15.53
2018-11-05T17:33:35.742Z,15.27
2018-11-05T17:36:03.614Z,14.53
2018-11-05T17:38:31.562Z,14.53
2018-11-05T17:40:59.463Z,15.33
2018-11-05T17:43:27.438Z,15.33
2018-11-05T17:45:55.360Z,15.70
2018-11-05T17:48:23.273Z,15.87
2018-11-05T17:50:52.665Z,14.50
2018-11-05T17:53:20.667Z,16.27
2018-11-05T17:55:48.596Z,14.93
2018-11-05T17:58:16.482Z,15.43
2018-11-05T18:00:44.397Z,15.73
2018-11-05T18:03:12.335Z,15.77
2018-11-05T18:05:40.216Z,15.40
2018-11-05T18:08:08.114Z,15.70
2018-11-05T18:10:36.047Z,15.07
2018-11-05T18:13:04.228Z,15.93
2018-11-05T18:15:32.211Z,15.70
2018-11-05T18:18:00.044Z,15.67
2018-11-05T18:20:27.951Z,15.50
2018-11-05T18:22:55.904Z,15.67
2018-11-05T18:25:23.783Z,15.87
2018-11-05T18:27:51.659Z,15.47
2018-11-05T18:30:19.562Z,15.70
2018-11-05T18:32:47.674Z,18.03
2018-11-05T18:35:15.661Z,15.90
2018-11-05T18:37:44.262Z,15.73
2018-11-05T18:40:13.247Z,16.03
2018-11-05T18:42:41.703Z,14.97
2018-11-05T18:45:09.921Z,15.60
2018-11-05T18:47:37.824Z,16.20
2018-11-05T18:50:07.900Z,15.80
2018-11-05T18:52:36.140Z,16.07
2018-11-05T18:55:04.323Z,15.90
2018-11-05T18:57:32.997Z,15.87
2018-11-05T19:00:00.983Z,15.60
2018-11-05T19:02:28.942Z,16.03
2018-11-05T19:04:57.008Z,16.17
2018-11-05T19:07:24.887Z,17.00
2018-11-05T19:09:52.846Z,16.07
2018-11-05T19:12:20.714Z,16.47
2018-11-05T19:14:48.747Z,16.73
2018-11-05T19:17:16.776Z,17.90
2018-11-05T19:19:44.718Z,18.33
2018-11-05T19:22:12.800Z,19.00
2018-11-05T19:24:41.000Z,18.13
2018-11-05T19:27:09.982Z,18.47
2018-11-05T19:29:37.927Z,17.77
2018-11-05T19:32:06.010Z,15.10
2018-11-05T19:34:33.940Z,16.13
2018-11-05T19:37:01.924Z,17.30
2018-11-05T19:39:29.804Z,16.77
2018-11-05T19:41:57.889Z,18.00
2018-11-05T19:44:25.755Z,16.27
2018-11-05T19:46:53.667Z,15.83
2018-11-05T19:49:21.593Z,16.03
2018-11-05T19:51:52.620Z,15.97
2018-11-05T19:54:20.502Z,17.33
2018-11-05T19:56:48.483Z,16.27
2018-11-05T19:59:16.415Z,16.87
2018-11-05T20:01:44.382Z,16.40
2018-11-05T20:04:12.292Z,17.87
2018-11-05T20:06:40.214Z,17.97
2018-11-05T20:09:08.207Z,16.97
2018-11-05T20:11:36.159Z,18.07
2018-11-05T20:14:04.161Z,17.93
2018-11-05T20:16:32.453Z,17.23
2018-11-05T20:19:00.441Z,18.33
2018-11-05T20:21:28.367Z,17.53
2018-11-05T20:23:56.268Z,17.20
2018-11-05T20:26:24.259Z,17.27
2018-11-05T20:28:52.269Z,16.93
2018-11-05T20:31:20.564Z,16.23
2018-11-05T20:33:48.197Z,17.83
2018-11-05T20:36:16.171Z,18.37
2018-11-05T20:38:44.031Z,18.10
2018-11-05T20:41:11.915Z,16.43
2018-11-05T20:43:39.872Z,18.07
2018-11-05T20:46:07.755Z,16.93
2018-11-05T20:48:35.704Z,17.07
2018-11-05T20:51:03.676Z,18.10
2018-11-05T20:53:31.712Z,19.20
2018-11-05T20:55:59.523Z,17.70
2018-11-05T20:58:27.961Z,17.23
2018-11-05T21:00:55.954Z,18.17
2018-11-05T21:03:23.859Z,17.33
2018-11-05T21:05:51.763Z,17.80
2018-11-05T21:08:19.675Z,17.40
2018-11-05T21:10:47.802Z,18.93
2018-11-05T21:13:15.708Z,17.70
2018-11-05T21:15:43.575Z,18.33
2018-11-05T21:18:11.452Z,19.27
2018-11-05T21:20:39.411Z,18.77
2018-11-05T21:23:07.360Z,19.03
2018-11-05T21:25:35.231Z,19.43
2018-11-05T21:28:04.326Z,17.73
2018-11-05T21:30:32.311Z,17.47
2018-11-05T21:33:00.350Z,17.23
2018-11-05T21:35:28.155Z,17.67
2018-11-05T21:37:56.020Z,18.37
2018-11-05T21:40:23.976Z,18.67
2018-11-05T21:42:52.023Z,17.73
2018-11-05T21:45:20.012Z,18.10
2018-11-05T21:47:47.986Z,17.20
2018-11-05T21:50:17.181Z,17.83
2018-11-05T21:52:45.368Z,18.63
2018-11-05T21:55:13.335Z,17.93
2018-11-05T21:57:42.418Z,18.57
2018-11-05T22:00:12.943Z,18.70
2018-11-05T22:02:46.358Z,18.73
2018-11-05T22:05:14.879Z,18.67
2018-11-05T22:07:42.799Z,18.43
2018-11-05T22:10:11.542Z,18.40
2018-11-05T22:12:39.695Z,18.50
2018-11-05T22:15:08.169Z,17.47
2018-11-05T22:17:36.246Z,18.37
2018-11-05T22:20:04.698Z,17.97
2018-11-05T22:22:32.662Z,18.53
2018-11-05T22:25:00.522Z,16.90
2018-11-05T22:27:28.990Z,18.03
2018-11-05T22:29:58.310Z,18.80
2018-11-05T22:32:26.484Z,17.83
2018-11-05T22:34:54.364Z,15.83
2018-11-05T22:37:22.376Z,16.97
2018-11-05T22:39:50.256Z,17.90
2018-11-05T22:42:18.247Z,18.17
2018-11-05T22:44:46.164Z,18.33
2018-11-05T22:47:14.160Z,21.93
2018-11-05T22:49:42.095Z,21.57
2018-11-05T22:52:10.847Z,19.03
2018-11-05T22:54:38.887Z,21.23
2018-11-05T22:57:07.096Z,20.27
2018-11-05T22:59:35.075Z,19.70
2018-11-05T23:02:03.131Z,21.67
2018-11-05T23:04:31.115Z,19.93
2018-11-05T23:06:59.053Z,20.77
2018-11-05T23:09:27.015Z,19.23
2018-11-05T23:11:55.316Z,16.90
2018-11-05T23:14:23.214Z,16.97
2018-11-05T23:16:51.164Z,17.57
2018-11-05T23:19:19.136Z,16.47
2018-11-05T23:21:47.142Z,18.53
2018-11-05T23:24:15.087Z,21.37
2018-11-05T23:26:43.022Z,22.17
2018-11-05T23:29:11.005Z,22.20
2018-11-05T23:31:38.915Z,20.30
2018-11-05T23:34:06.888Z,17.80
2018-11-05T23:36:34.829Z,16.90
2018-11-05T23:39:03.509Z,16.47
2018-11-05T23:41:31.433Z,18.53
2018-11-05T23:43:59.446Z,17.60
2018-11-05T23:46:27.431Z,18.13
2018-11-05T23:48:55.339Z,17.83
2018-11-05T23:51:23.450Z,17.50
2018-11-05T23:53:51.333Z,17.47
2018-11-05T23:56:19.292Z,16.67
2018-11-05T23:58:47.252Z,17.63
